createdAt,value
2022-11-12T00:01:28.055Z,77.02
2022-11-12T00:06:29.441Z,76.74
2022-11-12T00:11:30.954Z,76.64
2022-11-12T00:16:32.337Z,76.45
2022-11-12T00:21:33.677Z,76.31
2022-11-12T00:26:35.079Z,76.21
2022-11-12T00:31:37.115Z,76.14
2022-11-12T00:36:38.479Z,76.06
2022-11-12T00:41:39.822Z,75.77
2022-11-12T00:46:41.202Z,76.58
2022-11-12T00:51:43.096Z,76.80
2022-11-12T00:56:46.348Z,77.44
2022-11-12T01:01:47.818Z,77.18
2022-11-12T01:06:49.267Z,77.13
2022-11-12T01:11:50.745Z,77.79
2022-11-12T01:16:52.219Z,77.95
2022-11-12T01:21:53.601Z,77.82
2022-11-12T01:26:54.969Z,78.01
2022-11-12T01:31:56.417Z,77.71
2022-11-12T01:36:58.006Z,77.91
2022-11-12T01:41:59.400Z,77.32
2022-11-12T01:47:14.593Z,78.03
2022-11-12T01:52:22.293Z,77.57
2022-11-12T01:57:31.949Z,77.53
2022-11-12T02:02:37.238Z,77.39
2022-11-12T02:07:42.940Z,77.49
2022-11-12T02:13:03.549Z,77.01
2022-11-12T02:18:05.779Z,76.87
2022-11-12T02:23:08.359Z,76.83
2022-11-12T02:28:09.741Z,76.87
2022-11-12T02:33:11.104Z,76.85
2022-11-12T02:38:12.503Z,77.03
2022-11-12T02:43:13.854Z,76.20
2022-11-12T02:48:24.853Z,76.11
2022-11-12T02:53:26.289Z,76.15
2022-11-12T02:58:29.235Z,76.05
2022-11-12T03:03:30.720Z,76.53
2022-11-12T03:08:32.064Z,76.30
2022-11-12T03:13:33.392Z,77.02
2022-11-12T03:18:34.790Z,76.97
2022-11-12T03:23:36.175Z,76.71
2022-11-12T03:28:37.579Z,76.96
2022-11-12T03:33:39.042Z,76.82
2022-11-12T03:38:40.437Z,77.26
2022-11-12T03:43:41.768Z,77.38
2022-11-12T03:48:43.476Z,77.58
2022-11-12T03:53:44.837Z,77.33
2022-11-12T03:58:46.194Z,76.77
2022-11-12T04:03:47.624Z,76.89
2022-11-12T04:08:48.958Z,76.70
2022-11-12T04:13:50.275Z,76.42
2022-11-12T04:19:12.408Z,76.47
2022-11-12T04:24:33.760Z,77.16
2022-11-12T04:29:53.527Z,77.14
2022-11-12T04:34:55.557Z,76.87
2022-11-12T04:40:16.914Z,76.98
2022-11-12T04:45:18.340Z,76.56
2022-11-12T04:50:19.712Z,77.17
2022-11-12T04:55:21.064Z,77.20
2022-11-12T05:00:22.440Z,77.09
2022-11-12T05:05:23.951Z,76.59
2022-11-12T05:10:25.337Z,76.64
2022-11-12T05:15:26.765Z,77.11
2022-11-12T05:20:28.126Z,77.13
2022-11-12T05:25:29.487Z,77.08
2022-11-12T05:30:30.818Z,77.28
2022-11-12T05:35:32.167Z,77.35
2022-11-12T05:40:33.519Z,77.42
2022-11-12T05:45:34.878Z,77.10
2022-11-12T05:50:51.271Z,77.06
2022-11-12T05:56:02.170Z,76.58
2022-11-12T06:01:03.641Z,76.48
2022-11-12T06:06:05.106Z,76.71
2022-11-12T06:11:06.450Z,76.39
2022-11-12T06:16:08.499Z,76.26
2022-11-12T06:21:20.371Z,76.28
2022-11-12T06:26:22.975Z,76.71
2022-11-12T06:31:24.377Z,76.73
2022-11-12T06:36:25.741Z,76.59
2022-11-12T06:41:27.073Z,76.60
2022-11-12T06:46:28.412Z,76.51
2022-11-12T06:51:29.781Z,76.67
2022-11-12T06:56:31.238Z,76.89
2022-11-12T07:01:32.827Z,76.38
2022-11-12T07:06:34.393Z,76.19
2022-11-12T07:11:35.791Z,76.01
2022-11-12T07:16:37.241Z,76.24
2022-11-12T07:21:39.302Z,76.13
2022-11-12T07:26:46.065Z,75.87
2022-11-12T07:31:48.717Z,76.19
2022-11-12T07:36:51.777Z,75.99
2022-11-12T07:41:53.189Z,76.11
2022-11-12T07:46:54.520Z,75.94
2022-11-12T07:51:55.883Z,76.17
2022-11-12T07:56:57.345Z,76.11
2022-11-12T08:01:58.722Z,76.33
2022-11-12T08:07:00.217Z,76.18
2022-11-12T08:12:01.677Z,76.16
2022-11-12T08:17:03.078Z,76.14
2022-11-12T08:22:04.982Z,76.16
2022-11-12T08:27:06.363Z,76.06
2022-11-12T08:32:07.706Z,76.08
2022-11-12T08:37:09.176Z,75.79
2022-11-12T08:42:10.519Z,75.70
2022-11-12T08:47:11.960Z,75.54
2022-11-12T08:52:13.287Z,75.71
2022-11-12T08:57:14.617Z,75.46
2022-11-12T09:02:15.962Z,75.48
2022-11-12T09:07:43.221Z,75.16
2022-11-12T09:12:38.664Z,75.26
2022-11-12T09:17:39.994Z,75.09
2022-11-12T09:22:41.343Z,74.81
2022-11-12T09:27:48.146Z,74.90
2022-11-12T09:32:49.896Z,74.94
2022-11-12T09:37:51.246Z,74.83
2022-11-12T09:42:53.466Z,74.86
2022-11-12T09:48:00.476Z,74.50
2022-11-12T09:53:16.862Z,74.73
2022-11-12T09:58:19.555Z,74.52
2022-11-12T10:03:34.682Z,74.58
2022-11-12T10:08:52.248Z,74.57
2022-11-12T10:14:00.871Z,74.74
2022-11-12T10:19:12.647Z,75.05
2022-11-12T10:24:14.004Z,74.95
2022-11-12T10:29:30.548Z,74.83
2022-11-12T10:34:31.904Z,75.01
2022-11-12T10:39:37.692Z,74.47
2022-11-12T10:44:40.097Z,74.55
2022-11-12T10:49:41.472Z,74.18
2022-11-12T10:54:42.885Z,73.40
2022-11-12T10:59:44.260Z,73.26
2022-11-12T11:04:46.524Z,73.50
2022-11-12T11:10:00.219Z,73.73
2022-11-12T11:15:09.254Z,72.66
2022-11-12T11:20:25.631Z,73.11
2022-11-12T11:25:28.397Z,73.43
2022-11-12T11:30:30.097Z,73.11
2022-11-12T11:35:53.992Z,72.85
2022-11-12T11:41:04.554Z,72.74
2022-11-12T11:46:24.529Z,72.79
2022-11-12T11:51:46.328Z,72.28
2022-11-12T11:56:49.680Z,72.34
2022-11-12T12:02:22.466Z,72.27
2022-11-12T12:07:43.552Z,72.49
2022-11-12T12:13:03.547Z,72.29
2022-11-12T12:18:30.351Z,72.28
2022-11-12T12:23:44.191Z,71.95
2022-11-12T12:29:03.974Z,72.16
2022-11-12T12:34:19.072Z,72.12
2022-11-12T12:39:37.697Z,72.07
2022-11-12T12:45:07.872Z,71.37
2022-11-12T12:50:15.337Z,71.37
2022-11-12T12:55:35.574Z,71.79
2022-11-12T13:00:41.597Z,71.50
2022-11-12T13:05:43.074Z,71.46
2022-11-12T13:10:45.174Z,71.81
2022-11-12T13:15:52.724Z,71.38
2022-11-12T13:21:07.627Z,72.10
2022-11-12T13:26:58.005Z,71.50
2022-11-12T13:32:44.205Z,71.85
2022-11-12T13:37:51.757Z,72.30
2022-11-12T13:42:53.158Z,72.52
2022-11-12T13:47:54.603Z,72.17
2022-11-12T13:52:56.332Z,71.75
2022-11-12T13:57:57.888Z,71.75
2022-11-12T14:03:06.112Z,71.57
2022-11-12T14:08:28.225Z,71.66
2022-11-12T14:13:44.573Z,71.39
2022-11-12T14:19:23.004Z,71.69
2022-11-12T14:24:24.524Z,71.50
2022-11-12T14:29:29.941Z,71.43
2022-11-12T14:34:34.868Z,71.37
2022-11-12T14:39:43.548Z,71.21
2022-11-12T14:44:45.050Z,71.10
2022-11-12T14:49:49.039Z,70.81
2022-11-12T14:54:54.817Z,70.83
2022-11-12T14:59:57.043Z,71.41
2022-11-12T15:05:11.156Z,71.59
2022-11-12T15:10:43.161Z,71.49
2022-11-12T15:15:54.983Z,71.46
2022-11-12T15:21:05.741Z,71.41
2022-11-12T15:26:14.692Z,71.35
2022-11-12T15:31:21.707Z,71.61
2022-11-12T15:36:24.474Z,71.47
2022-11-12T15:41:29.374Z,71.51
2022-11-12T15:46:31.468Z,72.08
2022-11-12T15:51:32.811Z,72.32
2022-11-12T15:56:34.185Z,72.03
2022-11-12T16:01:35.574Z,71.86
2022-11-12T16:06:37.044Z,72.22
2022-11-12T16:11:38.932Z,72.42
2022-11-12T16:16:40.357Z,72.75
2022-11-12T16:21:41.719Z,73.04
2022-11-12T16:26:43.296Z,73.12
2022-11-12T16:31:44.840Z,72.73
2022-11-12T16:36:47.371Z,72.75
2022-11-12T16:41:48.744Z,72.85
2022-11-12T16:46:50.101Z,73.06
2022-11-12T16:51:51.460Z,73.02
2022-11-12T16:56:52.803Z,73.25
2022-11-12T17:01:54.202Z,73.44
2022-11-12T17:06:55.608Z,73.32
2022-11-12T17:11:57.033Z,73.08
2022-11-12T17:16:58.394Z,73.42
2022-11-12T17:21:59.739Z,73.32
2022-11-12T17:27:01.484Z,73.74
2022-11-12T17:32:03.313Z,73.82
2022-11-12T17:37:04.680Z,73.84
2022-11-12T17:42:06.054Z,73.43
2022-11-12T17:47:07.574Z,73.67
2022-11-12T17:52:09.006Z,73.55
2022-11-12T17:57:10.369Z,73.54
2022-11-12T18:02:12.409Z,73.44
2022-11-12T18:07:13.823Z,73.74
2022-11-12T18:12:15.281Z,73.98
2022-11-12T18:17:16.710Z,74.03
2022-11-12T18:22:20.510Z,73.77
2022-11-12T18:27:21.889Z,73.87
2022-11-12T18:32:23.257Z,73.91
2022-11-12T18:37:24.605Z,74.17
2022-11-12T18:42:25.961Z,74.23
2022-11-12T18:47:29.563Z,74.34
2022-11-12T18:52:30.934Z,74.28
2022-11-12T18:57:32.282Z,74.00
2022-11-12T19:02:33.626Z,74.15
2022-11-12T19:07:35.145Z,74.02
2022-11-12T19:12:36.897Z,74.32
2022-11-12T19:17:38.263Z,74.27
2022-11-12T19:22:39.613Z,73.99
2022-11-12T19:27:40.965Z,74.21
2022-11-12T19:32:42.638Z,74.27
2022-11-12T19:37:44.345Z,74.20
2022-11-12T19:42:47.622Z,74.36
2022-11-12T19:47:50.782Z,74.59
2022-11-12T19:52:55.449Z,74.34
2022-11-12T19:57:56.807Z,74.76
2022-11-12T20:02:59.037Z,74.31
2022-11-12T20:08:00.387Z,74.55
2022-11-12T20:13:03.206Z,74.54
2022-11-12T20:18:04.773Z,74.66
2022-11-12T20:23:06.237Z,74.41
2022-11-12T20:28:08.469Z,74.38
2022-11-12T20:33:12.215Z,74.44
2022-11-12T20:38:14.591Z,74.44
2022-11-12T20:43:15.969Z,74.46
2022-11-12T20:48:17.393Z,74.37
2022-11-12T20:53:18.806Z,74.49
2022-11-12T20:58:20.145Z,74.27
2022-11-12T21:03:21.537Z,74.53
2022-11-12T21:08:22.918Z,74.29
2022-11-12T21:13:24.896Z,74.27
2022-11-12T21:18:27.459Z,74.24
2022-11-12T21:23:33.908Z,74.55
2022-11-12T21:28:38.121Z,74.50
2022-11-12T21:33:39.596Z,74.31
2022-11-12T21:38:41.482Z,74.32
2022-11-12T21:43:44.661Z,74.39
2022-11-12T21:48:49.930Z,74.47
2022-11-12T21:53:55.929Z,74.57
2022-11-12T21:59:00.161Z,74.27
2022-11-12T22:04:05.311Z,74.59
2022-11-12T22:09:06.828Z,74.42
2022-11-12T22:14:08.346Z,74.57
2022-11-12T22:19:11.192Z,74.80
2022-11-12T22:24:12.664Z,74.21
2022-11-12T22:29:13.993Z,74.70
2022-11-12T22:34:15.474Z,74.86
2022-11-12T22:39:16.878Z,74.79
2022-11-12T22:44:18.823Z,74.26
2022-11-12T22:49:20.181Z,74.04
2022-11-12T22:54:21.513Z,74.32
2022-11-12T22:59:23.020Z,74.59
2022-11-12T23:04:24.364Z,74.19
2022-11-12T23:09:25.759Z,74.20
2022-11-12T23:14:27.254Z,74.44
2022-11-12T23:19:28.693Z,74.25
2022-11-12T23:24:30.066Z,74.13
2022-11-12T23:29:31.504Z,74.55
2022-11-12T23:34:32.922Z,74.81
2022-11-12T23:39:34.252Z,74.59
2022-11-12T23:44:35.648Z,74.32
2022-11-12T23:49:37.053Z,74.18
2022-11-12T23:54:38.402Z,74.15
2022-11-12T23:59:39.777Z,74.74
